Time;durP1;ratioP1;P1;durP2;ratioP2;P2;SDS_P1;SDS_P2;PMS_P1;PMS_P2;Temp;Humidity;BMP_temperature;BMP_pressure;BME280_temperature;BME280_humidity;BME280_pressure;Samples;Min_cycle;Max_cycle;Signal;HPM_P1;HPM_P2
2023/03/15 00:00:47;;;;;;;31.58;15.52;;;;;;;;;;5040924;28;20086;-77
2023/03/15 00:03:13;;;;;;;34.10;15.65;;;;;;;;;;5073750;28;20119;-77
2023/03/15 00:05:43;;;;;;;30.75;15.68;;;;;;;;;;5041293;28;20048;-77
2023/03/15 00:08:08;;;;;;;29.83;14.52;;;;;;;;;;5057616;28;20025;-77
2023/03/15 00:10:33;;;;;;;31.02;15.10;;;;;;;;;;5073426;28;20028;-78
2023/03/15 00:12:59;;;;;;;32.03;14.73;;;;;;;;;;5074943;28;20035;-77
2023/03/15 00:15:25;;;;;;;30.23;14.63;;;;;;;;;;5057369;28;20029;-76
2023/03/15 00:17:50;;;;;;;32.75;15.60;;;;;;;;;;5040164;28;20111;-77
2023/03/15 00:20:17;;;;;;;36.75;15.85;;;;;;;;;;5073792;28;20075;-78
2023/03/15 00:22:43;;;;;;;33.00;14.60;;;;;;;;;;5057399;28;20343;-77
2023/03/15 00:25:08;;;;;;;32.33;15.73;;;;;;;;;;5056993;28;20032;-77
2023/03/15 00:27:34;;;;;;;29.98;14.70;;;;;;;;;;5074919;28;20452;-76
2023/03/15 00:29:59;;;;;;;31.00;14.63;;;;;;;;;;5073209;28;20032;-76
2023/03/15 00:32:25;;;;;;;33.33;15.65;;;;;;;;;;5074615;28;20020;-77
2023/03/15 00:34:53;;;;;;;33.55;15.75;;;;;;;;;;5074490;28;20032;-78
2023/03/15 00:37:19;;;;;;;30.95;15.65;;;;;;;;;;5041031;28;20025;-78
2023/03/15 00:39:45;;;;;;;31.95;15.23;;;;;;;;;;5039946;28;20048;-77
2023/03/15 00:42:15;;;;;;;30.17;14.90;;;;;;;;;;5056546;28;20040;-77
2023/03/15 00:44:42;;;;;;;29.63;14.53;;;;;;;;;;5073202;28;20098;-77
2023/03/15 00:47:09;;;;;;;33.08;14.82;;;;;;;;;;5056630;28;20033;-77
2023/03/15 00:49:34;;;;;;;33.33;15.48;;;;;;;;;;5073183;28;20035;-77
2023/03/15 00:51:59;;;;;;;32.63;13.52;;;;;;;;;;5069611;28;20442;-78
2023/03/15 00:54:25;;;;;;;36.20;14.10;;;;;;;;;;5072847;28;20031;-77
2023/03/15 00:56:50;;;;;;;29.67;13.60;;;;;;;;;;5039579;28;20107;-77
2023/03/15 00:59:16;;;;;;;29.42;14.40;;;;;;;;;;5072608;28;20423;-77
2023/03/15 01:01:43;;;;;;;38.55;15.45;;;;;;;;;;5056587;28;20417;-78
2023/03/15 01:04:12;;;;;;;29.63;13.50;;;;;;;;;;5073249;28;20433;-77
2023/03/15 01:06:37;;;;;;;30.40;14.10;;;;;;;;;;5056237;28;20098;-77
2023/03/15 01:09:03;;;;;;;33.53;15.48;;;;;;;;;;5072786;28;20028;-77
2023/03/15 01:11:28;;;;;;;33.55;14.43;;;;;;;;;;5056194;28;20123;-76
2023/03/15 01:13:55;;;;;;;28.00;14.38;;;;;;;;;;5072477;28;20032;-78
2023/03/15 01:16:21;;;;;;;29.88;14.45;;;;;;;;;;5072705;28;20036;-77
2023/03/15 01:18:47;;;;;;;31.85;15.48;;;;;;;;;;5039603;28;20040;-77
2023/03/15 01:21:13;;;;;;;29.77;15.27;;;;;;;;;;5072615;28;20037;-77
2023/03/15 01:23:38;;;;;;;37.35;15.90;;;;;;;;;;5072757;28;20028;-75
2023/03/15 01:26:06;;;;;;;37.00;15.93;;;;;;;;;;5055932;28;20029;-76
2023/03/15 01:28:31;;;;;;;33.85;15.43;;;;;;;;;;5072486;28;20089;-79
2023/03/15 01:30:57;;;;;;;37.55;16.15;;;;;;;;;;5055887;28;20111;-77
2023/03/15 01:33:22;;;;;;;31.38;15.38;;;;;;;;;;5039459;28;20350;-78
2023/03/15 01:35:48;;;;;;;36.10;15.55;;;;;;;;;;5055639;28;20110;-78
2023/03/15 01:38:13;;;;;;;35.25;15.60;;;;;;;;;;5055799;28;20024;-76
2023/03/15 01:40:43;;;;;;;33.95;15.65;;;;;;;;;;5072403;28;20135;-76
2023/03/15 01:43:19;;;;;;;33.80;15.88;;;;;;;;;;5055749;28;20052;-77
2023/03/15 01:46:05;;;;;;;32.40;16.10;;;;;;;;;;5072743;28;20040;-78
2023/03/15 01:48:43;;;;;;;34.03;15.40;;;;;;;;;;5039489;28;20517;-77
2023/03/15 01:51:42;;;;;;;31.48;15.43;;;;;;;;;;5073460;28;20082;-78
2023/03/15 01:54:33;;;;;;;36.38;15.35;;;;;;;;;;5018645;28;20040;-77
2023/03/15 01:57:13;;;;;;;33.85;16.67;;;;;;;;;;5072236;28;20036;-77
2023/03/15 01:59:42;;;;;;;38.20;16.33;;;;;;;;;;5039948;28;20513;-77
2023/03/15 02:02:07;;;;;;;36.40;16.23;;;;;;;;;;5039803;28;20040;-77
2023/03/15 02:04:35;;;;;;;41.58;17.98;;;;;;;;;;5073672;28;20077;-77
2023/03/15 02:07:01;;;;;;;38.75;18.02;;;;;;;;;;5055668;28;20033;-77
2023/03/15 02:09:58;;;;;;;48.75;19.58;;;;;;;;;;5072344;28;20032;-77
2023/03/15 02:12:23;;;;;;;39.90;19.38;;;;;;;;;;5055556;28;20131;-77
2023/03/15 02:14:49;;;;;;;46.53;20.40;;;;;;;;;;5072107;28;20123;-77
2023/03/15 02:17:15;;;;;;;49.00;20.48;;;;;;;;;;5039027;28;20032;-77
2023/03/15 02:20:03;;;;;;;43.33;20.92;;;;;;;;;;5072231;28;20050;-78
2023/03/15 02:22:31;;;;;;;55.42;22.83;;;;;;;;;;5058324;28;20438;-77
2023/03/15 02:25:08;;;;;;;49.63;22.50;;;;;;;;;;5055786;28;20051;-77
2023/03/15 02:27:33;;;;;;;51.70;22.35;;;;;;;;;;5071864;28;20031;-77
2023/03/15 02:30:02;;;;;;;50.53;21.02;;;;;;;;;;5054759;28;20036;-77
2023/03/15 02:32:27;;;;;;;44.70;20.48;;;;;;;;;;5072980;28;20436;-77
2023/03/15 02:34:52;;;;;;;43.25;19.35;;;;;;;;;;5075564;28;20051;-77
2023/03/15 02:37:18;;;;;;;46.15;19.17;;;;;;;;;;5076704;28;20115;-76
2023/03/15 02:39:43;;;;;;;43.63;20.27;;;;;;;;;;5075448;28;20055;-77
2023/03/15 02:42:09;;;;;;;43.53;19.65;;;;;;;;;;5075427;28;20347;-77
2023/03/15 02:44:36;;;;;;;45.35;18.20;;;;;;;;;;5059057;28;20024;-77
2023/03/15 02:47:07;;;;;;;42.22;20.33;;;;;;;;;;5059110;28;20043;-78
2023/03/15 02:49:36;;;;;;;45.50;19.55;;;;;;;;;;5059127;28;20032;-77
2023/03/15 02:52:02;;;;;;;55.20;20.33;;;;;;;;;;5059169;28;20507;-78
2023/03/15 02:54:27;;;;;;;42.55;18.85;;;;;;;;;;5075403;28;20028;-77
2023/03/15 02:56:52;;;;;;;36.15;17.48;;;;;;;;;;5071862;28;20087;-77
2023/03/15 02:59:18;;;;;;;42.30;18.00;;;;;;;;;;5075466;28;20029;-77
2023/03/15 03:01:44;;;;;;;42.03;19.50;;;;;;;;;;5075588;28;20037;-77
2023/03/15 03:04:10;;;;;;;41.92;20.00;;;;;;;;;;5075369;28;20036;-77
2023/03/15 03:06:35;;;;;;;45.13;19.90;;;;;;;;;;5075329;28;20027;-78
2023/03/15 03:09:03;;;;;;;43.88;21.23;;;;;;;;;;5075049;28;20477;-77
2023/03/15 03:11:29;;;;;;;40.22;18.98;;;;;;;;;;5058522;28;20031;-76
2023/03/15 03:13:54;;;;;;;46.13;19.10;;;;;;;;;;5076291;28;20107;-77
2023/03/15 03:16:21;;;;;;;44.47;18.35;;;;;;;;;;5076076;28;20033;-77
2023/03/15 03:18:47;;;;;;;39.80;19.08;;;;;;;;;;5076595;28;20029;-77
2023/03/15 03:21:13;;;;;;;42.08;19.60;;;;;;;;;;5075981;28;20481;-77
2023/03/15 03:23:39;;;;;;;43.97;20.27;;;;;;;;;;5076016;28;20028;-78
2023/03/15 03:26:11;;;;;;;42.38;19.60;;;;;;;;;;5057901;28;20016;-77
2023/03/15 03:28:36;;;;;;;41.63;19.38;;;;;;;;;;5041545;28;20382;-77
2023/03/15 03:31:01;;;;;;;40.67;19.30;;;;;;;;;;5058175;28;20032;-77
2023/03/15 03:33:27;;;;;;;43.97;18.48;;;;;;;;;;5074766;28;20024;-77
2023/03/15 03:35:53;;;;;;;43.63;20.63;;;;;;;;;;5074986;28;20038;-77
2023/03/15 03:38:18;;;;;;;36.45;18.50;;;;;;;;;;5074481;28;20111;-77
2023/03/15 03:40:44;;;;;;;40.60;18.70;;;;;;;;;;5074279;28;20021;-77
2023/03/15 03:43:09;;;;;;;39.28;19.05;;;;;;;;;;5057782;28;20029;-78
2023/03/15 03:45:35;;;;;;;45.97;20.48;;;;;;;;;;5073649;28;20036;-78
2023/03/15 03:48:00;;;;;;;44.33;19.83;;;;;;;;;;5074425;28;20025;-78
2023/03/15 03:50:26;;;;;;;44.95;19.42;;;;;;;;;;5057816;28;20035;-77
2023/03/15 03:52:52;;;;;;;40.22;19.80;;;;;;;;;;5057685;28;20028;-78
2023/03/15 03:55:17;;;;;;;50.15;24.23;;;;;;;;;;5057352;28;20120;-77
2023/03/15 03:57:43;;;;;;;43.95;22.67;;;;;;;;;;5057526;28;20078;-77
2023/03/15 04:00:11;;;;;;;45.95;22.88;;;;;;;;;;5072085;28;20024;-77
2023/03/15 04:02:36;;;;;;;54.13;22.35;;;;;;;;;;5074128;28;20341;-77
2023/03/15 04:05:02;;;;;;;44.53;21.00;;;;;;;;;;5074097;28;20084;-78
2023/03/15 04:07:27;;;;;;;40.95;20.08;;;;;;;;;;5073968;28;20108;-78
2023/03/15 04:09:53;;;;;;;41.58;21.55;;;;;;;;;;5057630;28;20343;-78
2023/03/15 04:12:19;;;;;;;46.85;20.90;;;;;;;;;;5074397;28;20411;-77
2023/03/15 04:14:45;;;;;;;45.50;21.63;;;;;;;;;;5075055;28;20127;-78
2023/03/15 04:17:11;;;;;;;42.60;20.58;;;;;;;;;;5075203;28;20056;-78
2023/03/15 04:19:36;;;;;;;38.47;19.92;;;;;;;;;;5074979;28;20370;-78
2023/03/15 04:22:05;;;;;;;45.05;20.88;;;;;;;;;;5073418;28;20044;-78
2023/03/15 04:24:34;;;;;;;43.22;19.77;;;;;;;;;;5074025;28;20028;-78
2023/03/15 04:27:00;;;;;;;45.30;19.90;;;;;;;;;;5074800;28;20508;-78
2023/03/15 04:29:26;;;;;;;48.13;20.20;;;;;;;;;;5073638;28;20025;-78
2023/03/15 04:31:51;;;;;;;50.90;20.75;;;;;;;;;;5057555;28;20031;-77
2023/03/15 04:34:16;;;;;;;48.20;20.83;;;;;;;;;;5074264;28;20051;-77
2023/03/15 04:36:42;;;;;;;42.92;22.33;;;;;;;;;;5073400;28;20033;-77
2023/03/15 04:39:08;;;;;;;48.42;21.00;;;;;;;;;;5073042;28;20112;-78
2023/03/15 04:41:34;;;;;;;39.10;18.30;;;;;;;;;;5073548;28;20033;-78
2023/03/15 04:44:02;;;;;;;37.97;18.88;;;;;;;;;;5073278;28;20032;-78
2023/03/15 04:46:28;;;;;;;48.30;18.83;;;;;;;;;;5073347;28;20029;-78
2023/03/15 04:48:54;;;;;;;54.70;21.02;;;;;;;;;;5079951;28;20021;-77
2023/03/15 04:51:19;;;;;;;45.15;18.00;;;;;;;;;;5079343;28;20050;-79
2023/03/15 04:53:45;;;;;;;32.88;15.27;;;;;;;;;;5075968;28;20079;-78
2023/03/15 04:56:10;;;;;;;46.50;15.63;;;;;;;;;;5089783;28;20037;-79
2023/03/15 04:58:35;;;;;;;35.45;16.73;;;;;;;;;;5092388;28;20024;-78
2023/03/15 05:01:01;;;;;;;39.97;17.65;;;;;;;;;;5088744;28;20698;-78
2023/03/15 05:03:26;;;;;;;37.78;17.65;;;;;;;;;;5055891;28;20025;-77
2023/03/15 05:05:52;;;;;;;46.15;20.58;;;;;;;;;;5084696;28;20027;-79
2023/03/15 05:08:17;;;;;;;39.53;19.08;;;;;;;;;;5080977;28;20080;-78
2023/03/15 05:10:43;;;;;;;37.10;18.40;;;;;;;;;;5073242;28;20028;-79
2023/03/15 05:13:08;;;;;;;42.53;18.88;;;;;;;;;;5072822;28;20343;-77
2023/03/15 05:15:33;;;;;;;38.35;16.95;;;;;;;;;;5072791;28;20040;-78
2023/03/15 05:17:59;;;;;;;35.15;16.90;;;;;;;;;;5074026;28;20029;-78
2023/03/15 05:20:24;;;;;;;33.90;16.77;;;;;;;;;;5073744;28;20082;-77
2023/03/15 05:22:52;;;;;;;33.85;16.52;;;;;;;;;;5072615;28;20443;-77
2023/03/15 05:25:17;;;;;;;37.42;17.30;;;;;;;;;;5072668;28;20098;-78
2023/03/15 05:27:45;;;;;;;42.28;18.05;;;;;;;;;;5074129;28;20028;-77
2023/03/15 05:30:11;;;;;;;38.00;16.67;;;;;;;;;;5072758;28;20021;-78
2023/03/15 05:32:38;;;;;;;35.22;16.38;;;;;;;;;;5053115;28;20033;-78
2023/03/15 05:35:05;;;;;;;46.65;17.65;;;;;;;;;;5053609;28;20450;-78
2023/03/15 05:37:31;;;;;;;31.08;16.15;;;;;;;;;;5059288;28;20440;-81
2023/03/15 05:39:56;;;;;;;40.47;18.60;;;;;;;;;;5054585;28;20095;-83
2023/03/15 05:42:25;;;;;;;39.33;17.27;;;;;;;;;;5037779;28;20029;-82
2023/03/15 05:44:53;;;;;;;43.92;16.83;;;;;;;;;;5038686;28;20077;-84
2023/03/15 05:47:19;;;;;;;46.92;17.83;;;;;;;;;;5054846;28;20087;-83
2023/03/15 05:49:44;;;;;;;50.72;16.15;;;;;;;;;;5033012;28;20417;-84
2023/03/15 05:52:10;;;;;;;30.55;13.48;;;;;;;;;;5068460;28;20314;-83
2023/03/15 05:54:35;;;;;;;30.58;13.55;;;;;;;;;;5066213;28;20427;-83
2023/03/15 05:57:01;;;;;;;41.20;15.52;;;;;;;;;;5063540;28;20048;-83
2023/03/15 05:59:27;;;;;;;36.45;16.48;;;;;;;;;;5063805;28;20131;-82
2023/03/15 06:01:56;;;;;;;34.60;15.52;;;;;;;;;;5065014;28;20041;-85
2023/03/15 06:04:21;;;;;;;34.33;13.85;;;;;;;;;;5054697;28;20458;-84
2023/03/15 06:06:47;;;;;;;34.80;13.57;;;;;;;;;;5065081;28;20094;-78
2023/03/15 06:09:12;;;;;;;34.55;13.07;;;;;;;;;;5078804;28;20037;-78
2023/03/15 06:11:38;;;;;;;33.92;14.65;;;;;;;;;;5079627;28;20167;-80
2023/03/15 06:14:03;;;;;;;40.50;16.17;;;;;;;;;;5067730;28;20369;-79
2023/03/15 06:16:29;;;;;;;40.40;15.00;;;;;;;;;;5072916;28;20041;-80
2023/03/15 06:18:54;;;;;;;32.78;15.35;;;;;;;;;;5061877;28;20031;-78
2023/03/15 06:21:20;;;;;;;36.53;12.73;;;;;;;;;;5066065;28;20028;-78
2023/03/15 06:23:45;;;;;;;26.52;12.05;;;;;;;;;;5071945;28;20380;-78
2023/03/15 06:26:13;;;;;;;23.98;10.60;;;;;;;;;;5068759;28;20130;-77
2023/03/15 06:28:39;;;;;;;27.40;13.10;;;;;;;;;;5075643;28;20028;-77
2023/03/15 06:31:09;;;;;;;33.85;13.68;;;;;;;;;;5056754;28;20032;-77
2023/03/15 06:33:35;;;;;;;44.55;16.30;;;;;;;;;;5071505;28;20033;-77
2023/03/15 06:36:00;;;;;;;39.13;13.88;;;;;;;;;;5061608;28;20042;-76
2023/03/15 06:38:27;;;;;;;26.67;11.93;;;;;;;;;;5048446;28;20186;-78
2023/03/15 06:40:55;;;;;;;27.13;10.25;;;;;;;;;;5067571;28;20028;-79
2023/03/15 06:43:21;;;;;;;28.83;13.23;;;;;;;;;;5050919;28;20044;-77
2023/03/15 06:45:47;;;;;;;30.15;12.02;;;;;;;;;;5066654;28;20085;-77
2023/03/15 06:48:13;;;;;;;24.67;11.57;;;;;;;;;;5039532;28;20039;-79
2023/03/15 06:50:38;;;;;;;35.22;12.52;;;;;;;;;;5064843;28;20033;-79
2023/03/15 06:53:07;;;;;;;31.60;11.10;;;;;;;;;;5063039;28;20029;-78
2023/03/15 06:55:33;;;;;;;23.15;11.60;;;;;;;;;;5066351;28;20416;-79
2023/03/15 06:57:59;;;;;;;29.85;12.55;;;;;;;;;;5059231;28;20028;-78
2023/03/15 07:00:24;;;;;;;31.38;13.52;;;;;;;;;;5034699;28;20036;-78
2023/03/15 07:02:50;;;;;;;30.98;15.05;;;;;;;;;;5073287;28;20133;-80
2023/03/15 07:05:16;;;;;;;34.97;14.60;;;;;;;;;;5075003;28;20036;-78
2023/03/15 07:07:41;;;;;;;35.38;14.93;;;;;;;;;;5076218;28;20067;-79
2023/03/15 07:10:08;;;;;;;35.67;16.17;;;;;;;;;;5071516;28;20080;-79
2023/03/15 07:12:33;;;;;;;36.33;16.77;;;;;;;;;;5071992;28;20134;-78
2023/03/15 07:14:58;;;;;;;40.60;16.17;;;;;;;;;;5070902;28;20254;-77
2023/03/15 07:17:24;;;;;;;38.58;16.42;;;;;;;;;;5055117;28;20028;-81
2023/03/15 07:19:50;;;;;;;29.23;13.40;;;;;;;;;;5072324;28;20078;-83
2023/03/15 07:22:16;;;;;;;29.02;13.52;;;;;;;;;;5057945;28;20031;-79
2023/03/15 07:24:42;;;;;;;32.47;13.70;;;;;;;;;;5073893;28;20028;-81
2023/03/15 07:27:11;;;;;;;31.88;13.07;;;;;;;;;;5061835;28;20058;-84
2023/03/15 07:29:37;;;;;;;24.17;11.45;;;;;;;;;;5071941;28;20029;-78
2023/03/15 07:32:02;;;;;;;30.02;11.00;;;;;;;;;;5063760;28;20336;-79
2023/03/15 07:34:32;;;;;;;22.13;11.23;;;;;;;;;;5051430;28;20037;-80
2023/03/15 07:36:57;;;;;;;26.57;11.97;;;;;;;;;;5058709;28;20024;-80
2023/03/15 07:39:24;;;;;;;29.60;13.68;;;;;;;;;;5065270;28;20114;-80
2023/03/15 07:41:54;;;;;;;31.70;13.27;;;;;;;;;;5073918;28;20260;-78
2023/03/15 07:44:22;;;;;;;;;;;;;;;;;;5062506;28;20032;-78
2023/03/15 07:46:48;;;;;;;38.15;15.00;;;;;;;;;;5077605;28;19927;-78
2023/03/15 07:49:18;;;;;;;31.80;14.20;;;;;;;;;;5073619;28;20066;-78
2023/03/15 07:51:46;;;;;;;44.53;20.05;;;;;;;;;;5070296;28;20024;-78
2023/03/15 07:54:11;;;;;;;40.95;15.40;;;;;;;;;;5055522;28;20032;-77
2023/03/15 07:56:37;;;;;;;37.88;14.63;;;;;;;;;;5033446;28;20118;-79
2023/03/15 07:59:02;;;;;;;38.67;17.25;;;;;;;;;;5070766;28;20029;-80
2023/03/15 08:01:27;;;;;;;42.92;21.25;;;;;;;;;;5064513;28;20033;-79
2023/03/15 08:03:53;;;;;;;36.10;16.10;;;;;;;;;;5057226;28;20059;-79
2023/03/15 08:06:18;;;;;;;43.80;17.65;;;;;;;;;;5043787;28;20037;-80
2023/03/15 08:08:44;;;;;;;44.53;21.60;;;;;;;;;;5050675;28;20452;-79
2023/03/15 08:11:11;;;;;;;38.38;18.15;;;;;;;;;;5058493;28;20578;-77
2023/03/15 08:13:37;;;;;;;32.78;16.55;;;;;;;;;;5060338;28;20020;-78
2023/03/15 08:16:03;;;;;;;51.05;21.38;;;;;;;;;;5073294;28;20109;-80
2023/03/15 08:18:29;;;;;;;41.13;16.77;;;;;;;;;;5069607;28;20032;-79
2023/03/15 08:20:54;;;;;;;42.10;17.13;;;;;;;;;;5052505;28;20028;-80
2023/03/15 08:23:20;;;;;;;43.75;16.90;;;;;;;;;;5053052;28;20390;-78
2023/03/15 08:25:46;;;;;;;39.85;17.55;;;;;;;;;;5053420;28;20064;-78
2023/03/15 08:28:12;;;;;;;33.53;15.18;;;;;;;;;;5038333;28;20098;-77
2023/03/15 08:30:37;;;;;;;38.83;15.48;;;;;;;;;;5053851;28;20025;-78
2023/03/15 08:33:07;;;;;;;28.58;14.32;;;;;;;;;;5056979;28;20134;-77
2023/03/15 08:35:33;;;;;;;30.23;14.30;;;;;;;;;;5066318;28;20616;-79
2023/03/15 08:38:01;;;;;;;32.78;13.38;;;;;;;;;;5058882;28;20377;-79
2023/03/15 08:40:27;;;;;;;68.22;28.45;;;;;;;;;;5060940;28;20110;-77
2023/03/15 08:42:52;;;;;;;29.45;14.82;;;;;;;;;;5051637;28;20032;-78
2023/03/15 08:45:20;;;;;;;29.05;15.45;;;;;;;;;;5055606;28;20541;-78
2023/03/15 08:47:46;;;;;;;25.65;11.70;;;;;;;;;;5060869;28;20090;-77
2023/03/15 08:50:12;;;;;;;33.78;11.70;;;;;;;;;;5066721;28;20033;-79
2023/03/15 08:52:44;;;;;;;23.50;10.32;;;;;;;;;;5048100;28;20109;-80
2023/03/15 08:55:14;;;;;;;25.67;10.50;;;;;;;;;;5046582;28;20594;-78
2023/03/15 08:57:40;;;;;;;;;;;;;;;;;;5056246;28;20056;-79
2023/03/15 09:00:17;;;;;;;24.30;9.40;;;;;;;;;;5076225;28;19954;-79
2023/03/15 09:02:42;;;;;;;25.35;12.02;;;;;;;;;;5076423;28;20086;-78
2023/03/15 09:05:10;;;;;;;22.85;9.77;;;;;;;;;;5076085;28;20166;-80
2023/03/15 09:07:37;;;;;;;21.50;9.90;;;;;;;;;;5050498;28;20028;-79
2023/03/15 09:10:03;;;;;;;28.38;10.60;;;;;;;;;;5037799;28;20201;-77
2023/03/15 09:12:29;;;;;;;24.27;10.98;;;;;;;;;;5064902;28;20592;-78
2023/03/15 09:14:54;;;;;;;21.52;11.13;;;;;;;;;;5056399;28;20094;-78
2023/03/15 09:17:20;;;;;;;21.35;9.27;;;;;;;;;;5070156;28;20024;-78
2023/03/15 09:19:45;;;;;;;19.92;10.43;;;;;;;;;;5070355;28;20449;-78
2023/03/15 09:22:11;;;;;;;22.08;9.93;;;;;;;;;;5059195;28;20450;-78
2023/03/15 09:24:37;;;;;;;23.25;9.82;;;;;;;;;;5048901;28;20029;-79
2023/03/15 09:27:05;;;;;;;27.17;10.80;;;;;;;;;;5068215;28;20054;-78
2023/03/15 09:29:31;;;;;;;22.67;10.82;;;;;;;;;;5068040;28;20074;-78
2023/03/15 09:31:57;;;;;;;44.00;21.08;;;;;;;;;;5079174;28;20024;-77
2023/03/15 09:34:22;;;;;;;21.42;9.65;;;;;;;;;;5089555;28;20043;-77
2023/03/15 09:36:51;;;;;;;20.52;10.35;;;;;;;;;;5078092;28;20028;-78
2023/03/15 09:39:19;;;;;;;27.38;11.40;;;;;;;;;;5076586;28;20045;-78
2023/03/15 09:41:48;;;;;;;33.42;12.43;;;;;;;;;;5075184;28;20024;-80
2023/03/15 09:44:16;;;;;;;24.75;11.02;;;;;;;;;;5076169;28;20451;-78
2023/03/15 09:47:04;;;;;;;21.92;11.60;;;;;;;;;;5075262;28;20028;-80
2023/03/15 09:49:39;;;;;;;32.22;12.85;;;;;;;;;;5076565;28;20035;-78
2023/03/15 09:52:42;;;;;;;26.65;12.88;;;;;;;;;;5057469;28;20258;-78
2023/03/15 09:55:21;;;;;;;34.35;14.30;;;;;;;;;;5064577;28;20036;-78
2023/03/15 09:58:02;;;;;;;32.35;14.25;;;;;;;;;;5066749;28;20028;-80
2023/03/15 10:00:40;;;;;;;30.70;13.52;;;;;;;;;;5075048;28;20088;-80
2023/03/15 10:03:12;;;;;;;28.25;13.02;;;;;;;;;;5088779;28;20089;-80
2023/03/15 10:05:42;;;;;;;33.13;13.07;;;;;;;;;;5074842;28;20400;-78
2023/03/15 10:08:11;;;;;;;31.48;13.23;;;;;;;;;;5094541;28;20028;-79
2023/03/15 10:10:44;;;;;;;29.70;13.13;;;;;;;;;;5091560;28;20111;-80
2023/03/15 10:13:38;;;;;;;31.92;12.50;;;;;;;;;;5045522;28;20063;-79
2023/03/15 10:16:22;;;;;;;24.77;11.82;;;;;;;;;;5076847;28;20038;-79
2023/03/15 10:19:13;;;;;;;30.58;12.70;;;;;;;;;;5053052;28;20424;-78
2023/03/15 10:22:14;;;;;;;23.98;11.90;;;;;;;;;;5069959;28;20043;-79
2023/03/15 10:25:28;;;;;;;31.25;12.93;;;;;;;;;;5068906;28;20135;-79
2023/03/15 10:27:58;;;;;;;24.73;11.80;;;;;;;;;;5046442;28;20132;-79
2023/03/15 10:30:24;;;;;;;;;;;;;;;;;;5070739;28;20037;-79
2023/03/15 10:33:15;;;;;;;25.13;11.35;;;;;;;;;;5071171;28;19970;-80
2023/03/15 10:35:41;;;;;;;37.58;12.00;;;;;;;;;;5057596;28;20347;-78
2023/03/15 10:38:17;;;;;;;27.98;13.60;;;;;;;;;;5069796;28;20028;-77
2023/03/15 10:40:43;;;;;;;24.02;11.25;;;;;;;;;;5072076;28;20047;-79
2023/03/15 10:43:16;;;;;;;27.33;13.82;;;;;;;;;;5059561;28;20040;-80
2023/03/15 10:45:43;;;;;;;28.38;14.02;;;;;;;;;;5067175;28;20087;-78
2023/03/15 10:48:11;;;;;;;30.20;13.38;;;;;;;;;;5056552;28;20020;-78
2023/03/15 10:50:37;;;;;;;37.83;14.10;;;;;;;;;;5070549;28;20358;-78
2023/03/15 10:53:09;;;;;;;31.48;14.57;;;;;;;;;;5058992;28;20040;-81
2023/03/15 10:55:37;;;;;;;31.45;13.65;;;;;;;;;;5054925;28;20044;-76
2023/03/15 10:58:33;;;;;;;30.73;13.38;;;;;;;;;;5050915;28;20477;-80
2023/03/15 11:01:12;;;;;;;28.92;13.73;;;;;;;;;;5058242;28;20032;-80
2023/03/15 11:03:38;;;;;;;33.23;14.27;;;;;;;;;;5069058;28;20025;-79
2023/03/15 11:06:21;;;;;;;27.27;10.02;;;;;;;;;;5048610;28;20091;-79
2023/03/15 11:08:52;;;;;;;19.63;8.80;;;;;;;;;;5066445;28;20047;-79
2023/03/15 11:11:20;;;;;;;19.30;8.20;;;;;;;;;;5066428;28;20045;-79
2023/03/15 11:14:15;;;;;;;15.55;7.47;;;;;;;;;;5060193;28;20048;-79
2023/03/15 11:16:53;;;;;;;19.50;7.80;;;;;;;;;;5066089;28;20037;-77
2023/03/15 11:19:21;;;;;;;14.38;7.45;;;;;;;;;;5045606;28;20048;-80
2023/03/15 11:21:46;;;;;;;14.73;8.18;;;;;;;;;;5042200;28;20037;-78
2023/03/15 11:24:31;;;;;;;17.38;9.15;;;;;;;;;;5059619;28;20091;-78
2023/03/15 11:27:00;;;;;;;19.75;8.93;;;;;;;;;;5062194;28;20120;-78
2023/03/15 11:29:35;;;;;;;20.27;9.10;;;;;;;;;;5066913;28;20074;-78
2023/03/15 11:32:28;;;;;;;21.42;9.77;;;;;;;;;;5053526;28;20029;-80
2023/03/15 11:35:04;;;;;;;23.83;9.88;;;;;;;;;;5063517;28;20353;-80
2023/03/15 11:37:54;;;;;;;17.35;9.35;;;;;;;;;;5061888;28;20082;-80
2023/03/15 11:40:24;;;;;;;28.00;10.73;;;;;;;;;;5060050;28;20468;-81
2023/03/15 11:42:55;;;;;;;25.13;11.93;;;;;;;;;;5062804;28;20032;-81
2023/03/15 11:45:57;;;;;;;27.17;13.15;;;;;;;;;;5050706;28;20458;-80
2023/03/15 11:48:30;;;;;;;21.50;11.07;;;;;;;;;;5050939;28;20045;-80
2023/03/15 11:50:59;;;;;;;20.95;10.77;;;;;;;;;;5017664;28;20039;-79
2023/03/15 11:53:34;;;;;;;21.10;10.50;;;;;;;;;;5034116;28;20101;-81
2023/03/15 11:56:20;;;;;;;20.50;10.73;;;;;;;;;;5049675;28;20569;-80
2023/03/15 11:59:05;;;;;;;23.85;10.38;;;;;;;;;;5034661;28;20033;-80
2023/03/15 12:01:31;;;;;;;24.40;11.02;;;;;;;;;;5036836;28;20027;-80
2023/03/15 12:04:36;;;;;;;23.92;10.95;;;;;;;;;;5028100;28;20033;-80
2023/03/15 12:07:26;;;;;;;26.85;10.82;;;;;;;;;;5052269;28;20037;-80
2023/03/15 12:10:13;;;;;;;25.15;11.13;;;;;;;;;;5030471;28;20033;-80
2023/03/15 12:12:45;;;;;;;25.23;11.07;;;;;;;;;;5047586;28;20047;-80
2023/03/15 12:15:17;;;;;;;22.67;10.70;;;;;;;;;;5049988;28;20021;-81
2023/03/15 12:17:49;;;;;;;19.48;9.10;;;;;;;;;;5051453;28;20469;-80
2023/03/15 12:20:16;;;;;;;23.23;12.55;;;;;;;;;;5051735;28;20420;-81
2023/03/15 12:22:51;;;;;;;18.17;9.68;;;;;;;;;;5051439;28;20381;-81
2023/03/15 12:25:37;;;;;;;23.65;9.68;;;;;;;;;;5050739;28;20505;-79
2023/03/15 12:28:09;;;;;;;19.60;8.82;;;;;;;;;;5020586;28;20040;-79
2023/03/15 12:30:39;;;;;;;18.45;8.93;;;;;;;;;;5050349;28;20118;-80
2023/03/15 12:33:12;;;;;;;20.50;9.55;;;;;;;;;;5048506;28;20148;-80
2023/03/15 12:35:39;;;;;;;20.63;9.10;;;;;;;;;;5058254;28;20117;-79
2023/03/15 12:38:20;;;;;;;14.65;8.20;;;;;;;;;;5052899;28;20609;-79
2023/03/15 12:40:55;;;;;;;17.75;8.32;;;;;;;;;;5054137;28;20113;-78
2023/03/15 12:43:44;;;;;;;16.40;8.15;;;;;;;;;;5070646;28;20072;-79
2023/03/15 12:46:37;;;;;;;18.73;8.68;;;;;;;;;;5037492;28;20028;-79
2023/03/15 12:49:06;;;;;;;17.45;8.88;;;;;;;;;;5069318;28;20032;-79
2023/03/15 12:52:01;;;;;;;18.05;8.52;;;;;;;;;;5069228;28;20025;-79
2023/03/15 12:54:53;;;;;;;21.17;9.60;;;;;;;;;;5066871;28;20028;-79
2023/03/15 12:57:58;;;;;;;20.25;10.38;;;;;;;;;;5030816;28;20047;-80
2023/03/15 13:00:29;;;;;;;18.48;9.23;;;;;;;;;;5026728;28;20365;-79
2023/03/15 13:03:22;;;;;;;20.33;9.65;;;;;;;;;;5058484;28;20370;-80
2023/03/15 13:06:12;;;;;;;19.08;9.40;;;;;;;;;;5069669;28;20034;-79
2023/03/15 13:08:43;;;;;;;19.60;9.45;;;;;;;;;;5072278;28;20028;-81
2023/03/15 13:11:25;;;;;;;24.17;9.52;;;;;;;;;;5055958;28;20032;-79
2023/03/15 13:13:59;;;;;;;18.80;9.20;;;;;;;;;;5072948;28;20031;-81
2023/03/15 13:16:30;;;;;;;21.33;9.48;;;;;;;;;;5072595;28;20040;-79
2023/03/15 13:19:13;;;;;;;20.75;9.05;;;;;;;;;;5067718;28;20032;-78
2023/03/15 13:21:53;;;;;;;19.13;8.65;;;;;;;;;;5073375;28;20111;-79
2023/03/15 13:24:25;;;;;;;18.48;9.80;;;;;;;;;;5072086;28;20406;-78
2023/03/15 13:27:00;;;;;;;19.33;10.65;;;;;;;;;;5072878;28;20115;-80
2023/03/15 13:29:29;;;;;;;19.73;8.52;;;;;;;;;;5055793;28;20031;-80
2023/03/15 13:31:59;;;;;;;18.63;9.57;;;;;;;;;;5056086;28;20086;-80
2023/03/15 13:34:26;;;;;;;18.92;8.23;;;;;;;;;;5055804;28;20048;-80
2023/03/15 13:36:56;;;;;;;19.08;9.60;;;;;;;;;;5072829;28;20087;-79
2023/03/15 13:39:24;;;;;;;23.77;9.98;;;;;;;;;;5073690;28;20393;-80
2023/03/15 13:42:05;;;;;;;23.88;9.82;;;;;;;;;;5072881;28;20427;-80
2023/03/15 13:44:31;;;;;;;19.40;9.00;;;;;;;;;;5072887;28;20389;-79
2023/03/15 13:46:57;;;;;;;37.05;13.90;;;;;;;;;;5072417;28;20040;-79
2023/03/15 13:49:22;;;;;;;32.33;12.43;;;;;;;;;;5072297;28;20084;-80
2023/03/15 13:51:48;;;;;;;33.80;13.90;;;;;;;;;;5074228;28;20036;-79
2023/03/15 13:54:20;;;;;;;29.70;12.50;;;;;;;;;;5055865;28;20398;-80
2023/03/15 13:56:45;;;;;;;18.17;9.82;;;;;;;;;;5073122;28;20058;-80
2023/03/15 13:59:11;;;;;;;30.98;14.30;;;;;;;;;;5073585;28;20037;-80
2023/03/15 14:01:41;;;;;;;17.48;9.25;;;;;;;;;;5072368;28;20090;-78
2023/03/15 14:04:10;;;;;;;22.52;9.85;;;;;;;;;;5072308;28;20021;-81
2023/03/15 14:06:35;;;;;;;32.00;12.05;;;;;;;;;;5055689;28;20032;-79
2023/03/15 14:09:10;;;;;;;21.50;9.40;;;;;;;;;;5054324;28;20035;-79
2023/03/15 14:11:37;;;;;;;17.38;8.98;;;;;;;;;;5056126;28;20345;-79
2023/03/15 14:14:22;;;;;;;22.08;8.88;;;;;;;;;;5072121;28;20031;-79
2023/03/15 14:16:48;;;;;;;17.80;9.32;;;;;;;;;;5056460;28;20071;-79
2023/03/15 14:19:15;;;;;;;22.38;10.00;;;;;;;;;;5072079;28;20111;-79
2023/03/15 14:21:43;;;;;;;24.83;15.30;;;;;;;;;;5071756;28;20039;-78
2023/03/15 14:24:35;;;;;;;33.45;16.48;;;;;;;;;;5055830;28;20029;-79
2023/03/15 14:27:04;;;;;;;40.13;18.10;;;;;;;;;;5055700;28;20120;-79
2023/03/15 14:29:34;;;;;;;26.27;11.13;;;;;;;;;;5058429;28;20040;-79
2023/03/15 14:32:07;;;;;;;29.13;12.15;;;;;;;;;;5059806;28;20029;-79
2023/03/15 14:34:42;;;;;;;28.83;12.38;;;;;;;;;;5059539;28;20028;-79
2023/03/15 14:37:44;;;;;;;29.98;12.75;;;;;;;;;;5075908;28;20155;-79